Time;durP1;ratioP1;P1;durP2;ratioP2;P2;SDS_P1;SDS_P2;PMS_P1;PMS_P2;Temp;Humidity;BMP_temperature;BMP_pressure;BME280_temperature;BME280_humidity;BME280_pressure;Samples;Min_cycle;Max_cycle;Signal;HPM_P1;HPM_P2
2022/07/15 00:02:22;;;;;;;5.53;4.83;;;;;;;16.02;69.71;100418.44;1660384;86;21303;-57
2022/07/15 00:05:28;;;;;;;6.75;4.75;;;;;;;15.99;69.75;100418.34;1679958;85;21208;-58
2022/07/15 00:08:37;;;;;;;6.05;5.28;;;;;;;15.97;69.82;100411.30;1660140;86;21283;-57
2022/07/15 00:11:43;;;;;;;5.40;4.90;;;;;;;15.95;69.88;100410.69;1692661;85;21251;-57
2022/07/15 00:14:49;;;;;;;8.50;5.42;;;;;;;15.92;69.90;100418.84;1660070;86;21252;-56
2022/07/15 00:17:59;;;;;;;8.43;6.20;;;;;;;15.90;69.93;100405.77;1681626;85;21331;-56
2022/07/15 00:21:04;;;;;;;6.35;5.37;;;;;;;15.87;69.98;100405.36;1651047;86;21251;-54
2022/07/15 00:24:12;;;;;;;7.12;5.17;;;;;;;15.84;70.00;100408.55;1651031;87;21276;-55
2022/07/15 00:27:19;;;;;;;5.42;4.67;;;;;;;15.82;70.02;100410.66;1651094;87;21228;-58
2022/07/15 00:30:24;;;;;;;9.35;5.10;;;;;;;15.76;69.91;100407.36;1631434;87;21236;-57
2022/07/15 00:33:31;;;;;;;9.43;4.87;;;;;;;15.70;69.87;100410.92;1651052;87;21196;-57
2022/07/15 00:36:37;;;;;;;5.33;4.83;;;;;;;15.66;69.96;100409.66;1651077;87;21240;-57
2022/07/15 00:39:43;;;;;;;9.68;4.53;;;;;;;15.62;70.01;100409.77;1650581;87;21466;-57
2022/07/15 00:42:48;;;;;;;10.90;5.30;;;;;;;15.56;69.88;100405.91;1650578;87;21363;-56
2022/07/15 00:45:54;;;;;;;5.87;4.80;;;;;;;15.50;69.86;100410.88;1650628;86;21805;-54
2022/07/15 00:49:00;;;;;;;6.47;5.08;;;;;;;15.44;69.80;100408.95;1650612;87;21256;-54
2022/07/15 00:52:05;;;;;;;5.95;4.90;;;;;;;15.42;69.95;100407.44;1650794;87;21259;-55
2022/07/15 00:55:12;;;;;;;10.48;5.47;;;;;;;15.40;70.11;100400.75;1651553;86;21268;-55
2022/07/15 00:58:27;;;;;;;7.10;5.08;;;;;;;15.36;70.05;100400.83;1664460;85;21287;-57
2022/07/15 01:01:33;;;;;;;6.95;5.75;;;;;;;15.35;70.15;100407.38;1680087;85;21363;-57
2022/07/15 01:04:39;;;;;;;5.72;5.12;;;;;;;15.33;70.21;100405.38;1680115;85;21196;-57
2022/07/15 01:07:46;;;;;;;8.48;5.85;;;;;;;15.31;70.27;100403.34;1680017;85;21299;-57
2022/07/15 01:10:52;;;;;;;5.95;4.75;;;;;;;15.29;70.34;100406.83;1659285;86;21251;-57
2022/07/15 01:13:59;;;;;;;7.92;5.30;;;;;;;15.29;70.42;100399.07;1675845;85;21247;-57
2022/07/15 01:17:05;;;;;;;9.05;5.05;;;;;;;15.28;70.47;100405.66;1680103;85;21376;-55
2022/07/15 01:20:12;;;;;;;6.00;5.40;;;;;;;15.27;70.52;100398.45;1680095;85;21283;-56
2022/07/15 01:23:20;;;;;;;7.15;5.15;;;;;;;15.25;70.57;100396.42;1679932;85;21393;-57
2022/07/15 01:26:28;;;;;;;7.37;5.42;;;;;;;15.24;70.62;100394.17;1679974;85;21247;-57
2022/07/15 01:29:36;;;;;;;9.68;5.50;;;;;;;15.25;70.75;100392.28;1680159;85;21216;-56
2022/07/15 01:32:42;;;;;;;5.67;5.00;;;;;;;15.25;70.79;100386.25;1680117;85;21292;-57
2022/07/15 01:35:48;;;;;;;12.20;5.70;;;;;;;15.24;70.82;100390.04;1679981;85;21216;-56
2022/07/15 01:38:55;;;;;;;7.10;5.35;;;;;;;15.21;70.79;100384.94;1679973;85;21267;-56
2022/07/15 01:42:03;;;;;;;8.45;5.50;;;;;;;15.19;70.81;100385.66;1679256;85;21430;-58
2022/07/15 01:45:10;;;;;;;9.48;5.67;;;;;;;15.18;70.83;100385.87;1679745;85;21422;-57
2022/07/15 01:52:00;;;;;;;10.85;4.90;;;;;;;15.17;71.07;100386.94;1585340;88;21271;-57
2022/07/15 01:55:07;;;;;;;15.72;9.43;;;;;;;15.14;71.00;100383.22;1678631;85;21214;-57
2022/07/15 01:58:15;;;;;;;7.75;5.50;;;;;;;15.13;71.04;100384.28;1677788;85;21405;-57
2022/07/15 02:01:20;;;;;;;8.58;5.75;;;;;;;15.11;71.10;100389.97;1677818;85;21287;-57
2022/07/15 02:04:30;;;;;;;8.00;5.35;;;;;;;15.10;71.06;100385.52;1649071;86;21171;-57
2022/07/15 02:07:36;;;;;;;6.67;4.85;;;;;;;15.09;71.11;100383.84;1673564;85;21236;-57
2022/07/15 02:10:45;;;;;;;9.08;5.22;;;;;;;15.11;71.15;100389.14;1678583;85;21309;-57
2022/07/15 02:13:57;;;;;;;9.85;5.22;;;;;;;15.11;71.19;100391.35;1678181;85;21773;-58
2022/07/15 02:17:01;;;;;;;7.10;5.50;;;;;;;15.13;71.29;100398.07;1671518;85;21401;-57
2022/07/15 02:20:07;;;;;;;8.83;5.78;;;;;;;15.13;71.32;100392.01;1677913;84;21235;-57
2022/07/15 02:23:13;;;;;;;11.05;5.70;;;;;;;15.15;71.37;100388.52;1677779;84;21366;-58
2022/07/15 02:26:20;;;;;;;8.48;5.70;;;;;;;15.17;71.44;100388.31;1666349;85;21236;-56
2022/07/15 02:29:26;;;;;;;8.65;5.80;;;;;;;15.19;71.48;100389.80;1661685;85;21405;-57
2022/07/15 02:32:33;;;;;;;8.75;5.47;;;;;;;15.23;71.55;100395.77;1677923;84;21761;-57
2022/07/15 02:35:41;;;;;;;11.08;5.53;;;;;;;15.25;71.61;100390.38;1678027;85;21212;-56
2022/07/15 02:38:48;;;;;;;11.73;5.87;;;;;;;15.28;71.62;100393.25;1678130;85;21203;-56
2022/07/15 02:41:58;;;;;;;8.65;5.55;;;;;;;15.33;71.72;100391.59;1677945;85;21386;-55
2022/07/15 02:45:05;;;;;;;9.93;5.87;;;;;;;15.41;71.82;100397.47;1678384;85;21216;-56
2022/07/15 02:48:11;;;;;;;7.95;5.33;;;;;;;15.49;71.92;100390.40;1677518;85;21216;-56
2022/07/15 02:51:18;;;;;;;9.98;6.20;;;;;;;15.57;72.04;100397.94;1678130;85;21232;-56
2022/07/15 02:54:26;;;;;;;9.23;5.58;;;;;;;15.65;72.10;100395.55;1660953;85;21547;-57
2022/07/15 02:57:32;;;;;;;11.05;6.58;;;;;;;15.72;72.20;100397.77;1678333;84;21228;-56
2022/07/15 03:00:38;;;;;;;8.23;6.55;;;;;;;15.80;72.22;100398.44;1681617;84;21306;-56
2022/07/15 03:03:44;;;;;;;8.30;6.47;;;;;;;15.85;72.23;100387.62;1644517;87;21271;-57
2022/07/15 03:06:50;;;;;;;13.25;6.47;;;;;;;15.92;72.21;100398.69;1631022;87;21260;-56
2022/07/15 03:09:56;;;;;;;17.25;11.65;;;;;;;15.99;72.19;100399.01;1630526;88;21592;-56
2022/07/15 03:13:03;;;;;;;12.50;7.20;;;;;;;16.05;72.25;100394.02;1606012;87;21253;-57
2022/07/15 03:16:10;;;;;;;11.08;7.05;;;;;;;16.13;72.32;100395.20;1616986;86;21259;-57
2022/07/15 03:19:20;;;;;;;10.50;6.50;;;;;;;16.25;72.40;100401.77;1646051;87;21688;-57
2022/07/15 03:22:30;;;;;;;9.55;6.83;;;;;;;16.38;72.54;100400.92;1649004;86;21236;-57
2022/07/15 03:25:36;;;;;;;9.58;6.35;;;;;;;16.52;72.60;100410.97;1646297;86;21709;-58
2022/07/15 03:28:44;;;;;;;9.63;6.87;;;;;;;16.60;72.63;100404.37;1655345;85;21224;-57
2022/07/15 03:31:50;;;;;;;11.00;6.55;;;;;;;16.71;72.69;100406.48;1646223;86;21241;-55
2022/07/15 03:34:53;;;;;;;7.92;6.20;;;;;;;16.80;72.71;100403.80;1646827;86;21228;-55
2022/07/15 03:37:48;;;;;;;11.03;6.10;;;;;;;16.90;72.74;100411.13;1646316;86;21264;-56
2022/07/15 03:40:36;;;;;;;9.60;6.10;;;;;;;16.98;72.77;100409.52;1666454;85;21296;-55
2022/07/15 03:43:30;;;;;;;9.73;5.85;;;;;;;17.07;72.74;100416.50;1714676;83;21352;-56
2022/07/15 03:46:17;;;;;;;7.97;5.40;;;;;;;17.12;72.71;100409.79;1665843;85;21295;-55
2022/07/15 03:49:12;;;;;;;12.58;6.37;;;;;;;17.18;72.68;100413.92;1656410;86;21371;-55
2022/07/15 03:51:58;;;;;;;6.85;4.92;;;;;;;17.24;72.70;100417.72;1663211;85;21218;-55
2022/07/15 03:54:52;;;;;;;8.80;5.60;;;;;;;17.31;72.73;100414.41;1714212;83;21787;-55
2022/07/15 03:57:58;;;;;;;7.08;5.87;;;;;;;17.40;72.73;100420.00;1708315;84;21303;-55
2022/07/15 04:01:05;;;;;;;8.13;5.62;;;;;;;17.50;72.77;100420.44;1705234;82;21269;-55
2022/07/15 04:04:11;;;;;;;9.45;6.47;;;;;;;17.61;72.82;100421.13;1691712;85;21271;-55
2022/07/15 04:07:17;;;;;;;9.68;6.33;;;;;;;17.71;72.92;100417.36;1691405;85;21743;-54
2022/07/15 04:10:23;;;;;;;15.70;8.45;;;;;;;17.83;72.99;100417.81;1693001;83;21264;-57
2022/07/15 04:13:30;;;;;;;9.88;7.28;;;;;;;17.94;73.07;100417.64;1658580;86;21199;-54
2022/07/15 04:16:38;;;;;;;10.43;6.78;;;;;;;18.06;73.11;100408.91;1662760;86;21247;-53
2022/07/15 04:19:46;;;;;;;11.63;5.90;;;;;;;18.18;73.15;100408.52;1661349;86;21740;-54
2022/07/15 04:22:53;;;;;;;8.15;6.00;;;;;;;18.30;73.21;100409.48;1678221;85;21283;-55
2022/07/15 04:25:59;;;;;;;7.15;5.60;;;;;;;18.41;73.23;100408.79;1679737;85;21273;-54
2022/07/15 04:29:06;;;;;;;6.72;5.62;;;;;;;18.54;73.22;100405.91;1674790;84;21211;-54
2022/07/15 04:32:12;;;;;;;7.00;5.25;;;;;;;18.62;73.25;100401.47;1686247;84;21223;-55
2022/07/15 04:35:19;;;;;;;7.80;5.55;;;;;;;18.72;73.28;100403.20;1691292;83;21203;-55
2022/07/15 04:38:27;;;;;;;9.00;5.45;;;;;;;18.87;73.33;100406.97;1678391;83;21228;-54
2022/07/15 04:41:34;;;;;;;7.15;5.22;;;;;;;18.97;73.33;100408.16;1678043;85;21308;-54
2022/07/15 04:44:41;;;;;;;8.43;5.30;;;;;;;19.07;73.33;100408.48;1692073;84;21224;-55
2022/07/15 04:47:50;;;;;;;9.08;5.50;;;;;;;19.18;73.33;100403.56;1682500;85;21346;-55
2022/07/15 04:50:57;;;;;;;10.10;5.28;;;;;;;19.30;73.38;100412.83;1689622;84;21279;-55
2022/07/15 04:54:03;;;;;;;8.13;5.25;;;;;;;19.43;73.40;100407.66;1658432;85;21366;-54
2022/07/15 04:57:12;;;;;;;8.30;5.22;;;;;;;19.53;73.41;100411.27;1645749;86;21256;-55
2022/07/15 05:00:23;;;;;;;8.48;5.17;;;;;;;19.63;73.41;100411.58;1669588;86;21222;-55
2022/07/15 05:03:39;;;;;;;9.73;6.08;;;;;;;19.74;73.45;100404.66;1671477;84;21642;-58
2022/07/15 05:06:49;;;;;;;8.33;5.28;;;;;;;19.86;73.47;100407.50;1685092;84;21437;-60
2022/07/15 05:09:56;;;;;;;7.10;5.22;;;;;;;19.96;73.42;100408.66;1676932;85;21324;-57
2022/07/15 05:13:04;;;;;;;9.85;5.78;;;;;;;20.08;73.44;100407.28;1692665;84;21236;-60
2022/07/15 05:16:14;;;;;;;7.12;4.92;;;;;;;20.19;73.46;100407.89;1677200;84;21260;-58
2022/07/15 05:19:23;;;;;;;8.83;5.28;;;;;;;20.30;73.44;100407.08;1678933;84;21204;-61
2022/07/15 05:22:29;;;;;;;9.50;5.22;;;;;;;20.41;73.41;100402.08;1695706;83;21223;-60
2022/07/15 05:25:35;;;;;;;6.12;5.05;;;;;;;20.49;73.39;100403.13;1704947;83;21641;-60
2022/07/15 05:28:42;;;;;;;7.35;5.17;;;;;;;20.59;73.39;100400.61;1672894;82;21742;-59
2022/07/15 05:31:52;;;;;;;9.25;5.70;;;;;;;20.69;73.37;100395.30;1697861;84;21817;-58
2022/07/15 05:35:02;;;;;;;6.37;5.25;;;;;;;20.78;73.36;100396.09;1694580;83;21340;-60
2022/07/15 05:38:16;;;;;;;10.15;5.78;;;;;;;20.90;73.40;100398.85;1703403;82;21251;-58
2022/07/15 05:41:27;;;;;;;8.25;5.80;;;;;;;21.01;73.46;100399.98;1685265;83;21260;-58
2022/07/15 05:44:35;;;;;;;8.38;5.65;;;;;;;21.13;73.46;100401.67;1702250;84;21208;-58
2022/07/15 05:47:47;;;;;;;8.08;5.72;;;;;;;21.24;73.47;100395.23;1694159;83;21420;-57
2022/07/15 05:50:56;;;;;;;6.55;4.70;;;;;;;21.33;73.45;100388.72;1663119;84;21347;-53
2022/07/15 05:54:06;;;;;;;5.80;5.17;;;;;;;21.45;73.46;100397.38;1715870;82;21375;-57
2022/07/15 05:57:16;;;;;;;7.05;5.60;;;;;;;21.58;73.50;100394.29;1717196;82;21276;-58
2022/07/15 06:00:26;;;;;;;8.55;4.87;;;;;;;21.70;73.47;100400.69;1692680;84;21734;-58
2022/07/15 06:03:32;;;;;;;5.87;4.87;;;;;;;21.82;73.46;100398.72;1704007;82;21224;-58
2022/07/15 06:06:42;;;;;;;7.20;4.70;;;;;;;21.93;73.47;100397.83;1670652;85;21614;-56
2022/07/15 06:09:50;;;;;;;7.80;5.25;;;;;;;22.05;73.48;100398.64;1697251;84;22043;-58
2022/07/15 06:13:01;;;;;;;6.90;5.00;;;;;;;22.17;73.50;100392.44;1699857;83;21556;-58
2022/07/15 06:16:16;;;;;;;9.90;4.80;;;;;;;22.29;73.46;100394.31;1651894;86;21305;-57
2022/07/15 06:19:23;;;;;;;5.67;4.33;;;;;;;22.43;73.44;100404.05;1662928;86;21271;-57
2022/07/15 06:22:31;;;;;;;6.20;4.20;;;;;;;22.57;73.44;100404.89;1661846;86;21233;-57
2022/07/15 06:25:42;;;;;;;6.03;4.08;;;;;;;22.70;73.42;100406.50;1676342;85;21271;-57
2022/07/15 06:28:49;;;;;;;5.95;4.53;;;;;;;22.84;73.36;100396.67;1691153;84;21785;-59
2022/07/15 06:31:56;;;;;;;9.25;5.15;;;;;;;22.96;73.29;100396.05;1700129;83;21267;-57
2022/07/15 06:35:05;;;;;;;5.08;4.50;;;;;;;23.07;73.21;100404.87;1678311;84;21741;-58
2022/07/15 06:38:15;;;;;;;7.30;4.53;;;;;;;23.17;73.15;100404.99;1677240;85;21187;-58
2022/07/15 06:41:28;;;;;;;6.55;4.50;;;;;;;23.30;73.10;100401.87;1688327;82;21244;-57
2022/07/15 06:44:39;;;;;;;5.22;4.17;;;;;;;23.40;73.01;100396.43;1696847;83;21334;-57
2022/07/15 06:48:01;;;;;;;6.80;4.20;;;;;;;23.49;72.97;100404.11;1689122;82;21227;-59
2022/07/15 06:51:13;;;;;;;8.40;4.65;;;;;;;23.61;72.89;100408.14;1704589;84;21236;-57
2022/07/15 06:54:23;;;;;;;9.15;4.60;;;;;;;23.73;72.83;100406.08;1706776;84;21192;-52
2022/07/15 07:00:59;;;;;;;6.15;3.67;;;;;;;23.97;72.61;100407.52;1709775;82;21313;-57
2022/07/15 07:04:11;;;;;;;6.40;4.67;;;;;;;24.10;72.54;100407.66;1699469;82;21594;-57
2022/07/15 07:07:13;;;;;;;5.47;4.22;;;;;;;24.18;72.43;100408.02;1698803;84;21519;-57
2022/07/15 07:10:12;;;;;;;7.67;4.85;;;;;;;24.24;72.27;100398.59;1701584;84;21293;-57
2022/07/15 07:13:24;;;;;;;5.37;3.92;;;;;;;24.32;72.26;100392.52;1690365;82;21230;-59
2022/07/15 07:16:32;;;;;;;6.03;4.20;;;;;;;24.42;72.18;100396.78;1685631;84;21303;-57
2022/07/15 07:19:46;;;;;;;6.72;4.12;;;;;;;24.50;72.06;100394.05;1670461;85;21226;-56
2022/07/15 07:22:58;;;;;;;6.10;3.95;;;;;;;24.59;71.96;100395.27;1686001;84;21707;-56
2022/07/15 07:26:17;;;;;;;7.12;3.87;;;;;;;24.65;71.89;100393.65;1676573;84;21211;-56
2022/07/15 07:29:28;;;;;;;7.17;4.28;;;;;;;24.72;71.81;100390.66;1677496;84;21284;-55
2022/07/15 07:32:39;;;;;;;6.95;4.28;;;;;;;24.80;71.75;100383.98;1679137;84;21278;-56
2022/07/15 07:35:47;;;;;;;5.60;3.98;;;;;;;24.87;71.65;100387.95;1693710;84;21202;-55
2022/07/15 07:38:55;;;;;;;7.33;4.00;;;;;;;24.95;71.56;100385.51;1655893;86;21245;-57
2022/07/15 07:42:07;;;;;;;5.60;4.00;;;;;;;25.03;71.46;100380.80;1620888;87;21317;-57
2022/07/15 07:45:13;;;;;;;4.70;3.85;;;;;;;25.11;71.39;100373.84;1665921;85;21232;-56
2022/07/15 07:48:21;;;;;;;14.87;4.53;;;;;;;25.17;71.31;100378.35;1634804;85;21233;-58
2022/07/15 07:51:30;;;;;;;5.90;3.75;;;;;;;25.26;71.20;100378.69;1676920;83;21237;-58
2022/07/15 07:54:38;;;;;;;5.55;4.08;;;;;;;25.32;71.06;100375.65;1693235;84;21237;-56
2022/07/15 07:58:03;;;;;;;8.25;4.15;;;;;;;25.38;70.89;100375.13;1686358;83;21343;-57
2022/07/15 08:01:14;;;;;;;6.45;4.20;;;;;;;25.41;70.74;100368.43;1666621;84;21260;-58
2022/07/15 08:04:26;;;;;;;7.33;4.12;;;;;;;25.48;70.69;100373.20;1656649;86;21773;-57
2022/07/15 08:07:39;;;;;;;4.58;3.58;;;;;;;25.55;70.56;100370.16;1673320;85;21594;-56
2022/07/15 08:10:48;;;;;;;6.55;3.67;;;;;;;25.61;70.43;100366.28;1720014;83;21361;-57
2022/07/15 08:13:58;;;;;;;7.08;3.35;;;;;;;25.69;70.37;100365.17;1725891;82;21395;-57
2022/07/15 08:17:05;;;;;;;8.25;3.70;;;;;;;25.80;70.28;100364.67;1727991;81;21225;-58
2022/07/15 08:20:20;;;;;;;8.98;3.98;;;;;;;25.85;70.12;100362.70;1722047;81;21192;-58
2022/07/15 08:23:24;;;;;;;5.97;4.30;;;;;;;25.94;70.08;100360.22;1704401;82;21416;-55
2022/07/15 08:26:31;;;;;;;5.08;3.80;;;;;;;26.04;69.94;100358.30;1701317;82;21239;-54
2022/07/15 08:29:41;;;;;;;6.45;3.77;;;;;;;26.14;69.79;100358.87;1716204;83;21224;-56
2022/07/15 08:32:48;;;;;;;5.80;3.37;;;;;;;26.24;69.65;100362.53;1719163;83;21215;-55
2022/07/15 08:35:56;;;;;;;5.45;3.62;;;;;;;26.33;69.48;100354.41;1690589;83;21263;-55
2022/07/15 08:39:04;;;;;;;4.85;3.65;;;;;;;26.41;69.41;100355.27;1686327;84;21712;-57
2022/07/15 08:42:14;;;;;;;4.55;3.27;;;;;;;26.51;69.23;100348.80;1672498;84;21764;-56
2022/07/15 08:45:24;;;;;;;4.62;3.08;;;;;;;26.55;69.07;100353.57;1702112;82;21268;-56
2022/07/15 08:48:38;;;;;;;3.62;2.90;;;;;;;26.64;68.88;100347.70;1683218;84;21259;-56
2022/07/15 08:51:47;;;;;;;4.97;3.17;;;;;;;26.71;68.65;100350.22;1703624;82;21206;-55
2022/07/15 08:55:00;;;;;;;6.40;3.27;;;;;;;26.79;68.49;100335.61;1703470;82;21221;-57
2022/07/15 08:57:59;;;;;;;;;;;;;;;26.87;68.32;100340.66;1685800;82;21800;-56
2022/07/15 09:01:03;;;;;;;6.28;2.87;;;;;;;26.97;68.19;100335.87;1682271;83;20230;-53
2022/07/15 09:04:15;;;;;;;6.15;2.90;;;;;;;27.05;68.05;100328.23;1681454;85;22070;-54
2022/07/15 09:07:21;;;;;;;5.30;3.15;;;;;;;27.14;67.89;100329.36;1656454;86;21263;-54
2022/07/15 09:10:29;;;;;;;5.58;2.90;;;;;;;27.20;67.60;100328.77;1688477;83;21252;-54
2022/07/15 09:13:46;;;;;;;3.85;3.10;;;;;;;27.24;67.43;100333.52;1674688;83;21230;-54
2022/07/15 09:16:51;;;;;;;5.37;3.12;;;;;;;27.28;67.25;100331.02;1702728;83;21236;-52
2022/07/15 09:20:08;;;;;;;4.45;3.10;;;;;;;27.33;67.07;100323.42;1702767;82;21256;-53
2022/07/15 09:23:20;;;;;;;3.62;2.80;;;;;;;27.43;66.92;100324.77;1671228;83;21198;-53
2022/07/15 09:26:41;;;;;;;4.08;2.80;;;;;;;27.59;66.79;100321.34;1704516;83;21281;-53
2022/07/15 09:33:36;;;;;;;4.10;2.70;;;;;;;27.91;66.37;100311.89;1669498;85;21819;-54
2022/07/15 09:36:44;;;;;;;4.87;3.15;;;;;;;27.98;66.04;100317.20;1692441;83;21240;-54
2022/07/15 09:40:05;;;;;;;4.37;2.67;;;;;;;28.06;65.81;100313.77;1642395;85;21318;-55
2022/07/15 09:43:14;;;;;;;3.95;2.80;;;;;;;28.25;65.73;100311.94;1697042;84;21269;-55
2022/07/15 09:46:24;;;;;;;4.75;3.12;;;;;;;28.54;65.56;100321.31;1669441;85;21228;-55
2022/07/15 09:49:40;;;;;;;4.00;2.70;;;;;;;28.71;65.24;100319.73;1688506;82;21244;-53
2022/07/15 09:52:55;;;;;;;6.28;3.17;;;;;;;28.78;64.72;100315.17;1704363;82;21270;-53
2022/07/15 09:56:06;;;;;;;3.52;2.58;;;;;;;28.79;64.40;100321.06;1685823;82;21220;-53
2022/07/15 09:59:15;;;;;;;3.80;2.65;;;;;;;28.76;64.05;100307.02;1700032;83;21224;-54
2022/07/15 10:02:36;;;;;;;10.13;3.33;;;;;;;28.79;63.95;100302.19;1678673;85;21760;-53
2022/07/15 10:05:43;;;;;;;5.12;3.25;;;;;;;28.86;63.84;100300.44;1696572;82;21227;-53
2022/07/15 10:08:52;;;;;;;3.92;2.87;;;;;;;28.95;63.80;100295.81;1740956;80;21223;-53
2022/07/15 10:12:08;;;;;;;4.97;2.80;;;;;;;29.09;63.64;100293.43;1733287;81;21836;-51
2022/07/15 10:15:50;;;;;;;4.03;2.85;;;;;;;29.24;63.57;100293.80;1722609;83;21351;-53
2022/07/15 10:19:22;;;;;;;7.92;3.27;;;;;;;29.39;63.26;100295.03;1694218;81;21209;-52
2022/07/15 10:22:45;;;;;;;4.55;2.77;;;;;;;29.50;62.97;100285.29;1686964;84;21292;-51
2022/07/15 10:26:24;;;;;;;6.35;2.72;;;;;;;29.54;62.56;100287.79;1674595;85;21247;-54
2022/07/15 10:29:32;;;;;;;4.10;2.67;;;;;;;29.59;62.33;100281.23;1679169;85;21260;-58
2022/07/15 10:33:16;;;;;;;8.58;3.02;;;;;;;29.58;62.00;100278.13;1666415;83;21239;-58
2022/07/15 10:36:21;;;;;;;4.72;3.10;;;;;;;29.58;61.88;100283.77;1622761;88;21247;-58
2022/07/15 10:39:27;;;;;;;3.83;2.80;;;;;;;29.66;61.65;100279.74;1682606;83;21764;-56
2022/07/15 10:43:01;;;;;;;4.37;2.83;;;;;;;29.78;61.48;100266.00;1701444;84;21224;-58
2022/07/15 10:46:30;;;;;;;3.15;2.47;;;;;;;29.94;61.25;100270.87;1682565;85;21903;-56
2022/07/15 10:49:38;;;;;;;3.42;2.65;;;;;;;30.23;60.65;100261.66;1686279;85;21296;-56
2022/07/15 10:52:53;;;;;;;4.17;2.65;;;;;;;30.23;60.65;100261.66;1687973;83;21255;-58
2022/07/15 10:55:58;;;;;;;3.47;2.20;;;;;;;30.36;60.28;100264.55;1685347;83;21226;-57
2022/07/15 10:59:28;;;;;;;5.15;2.50;;;;;;;30.43;59.89;100267.80;1694887;84;21225;-58
2022/07/15 11:02:37;;;;;;;4.25;2.40;;;;;;;30.47;59.59;100253.89;1691485;84;21289;-57
2022/07/15 11:06:04;;;;;;;5.22;2.25;;;;;;;30.59;59.33;100260.73;1674075;84;21234;-58
2022/07/15 11:09:17;;;;;;;4.70;2.25;;;;;;;30.68;58.66;100257.19;1710056;82;21224;-57
2022/07/15 11:12:23;;;;;;;5.58;2.30;;;;;;;30.49;58.40;100252.42;1688729;84;21675;-58
2022/07/15 11:15:32;;;;;;;3.67;2.30;;;;;;;30.34;57.80;100251.30;1701797;82;21219;-58
2022/07/15 11:18:59;;;;;;;3.37;2.45;;;;;;;30.34;57.80;100251.30;1665660;85;21192;-58
2022/07/15 11:22:10;;;;;;;5.28;2.40;;;;;;;30.27;57.68;100261.33;1691447;83;21915;-56
2022/07/15 11:25:33;;;;;;;4.03;2.45;;;;;;;30.34;57.55;100257.52;1711723;82;21223;-57
2022/07/15 11:28:42;;;;;;;3.65;2.30;;;;;;;30.50;57.21;100248.47;1700934;83;21622;-57
2022/07/15 11:31:50;;;;;;;4.72;2.50;;;;;;;30.60;56.88;100245.44;1681862;84;21247;-57
2022/07/15 11:35:05;;;;;;;6.03;2.27;;;;;;;30.60;56.88;100245.44;1686319;83;21211;-57
2022/07/15 11:38:14;;;;;;;3.62;2.20;;;;;;;30.65;56.58;100245.34;1718680;83;21275;-55
2022/07/15 11:44:55;;;;;;;4.90;2.42;;;;;;;30.77;56.10;100249.12;1690713;84;21223;-58
2022/07/15 11:48:00;;;;;;;2.52;2.27;;;;;;;30.81;55.81;100240.27;1722627;81;21759;-57
2022/07/15 11:51:14;;;;;;;3.47;2.47;;;;;;;30.83;55.50;100242.81;1684473;85;21365;-57
2022/07/15 11:54:22;;;;;;;7.80;2.77;;;;;;;30.84;55.23;100246.73;1692457;83;21262;-58
2022/07/15 11:57:30;;;;;;;3.67;2.42;;;;;;;30.83;54.99;100241.39;1678387;83;21754;-56
2022/07/15 12:00:42;;;;;;;4.58;2.50;;;;;;;30.85;54.74;100243.31;1713796;83;21211;-57
2022/07/15 12:03:53;;;;;;;3.27;2.52;;;;;;;30.86;54.48;100233.70;1719669;81;21721;-53
2022/07/15 12:07:01;;;;;;;3.50;2.22;;;;;;;30.89;54.21;100237.31;1722144;81;21270;-56
2022/07/15 12:10:08;;;;;;;6.55;2.35;;;;;;;30.89;53.93;100231.66;1678868;84;21231;-55
2022/07/15 12:13:17;;;;;;;6.10;2.65;;;;;;;30.89;53.68;100228.83;1725105;81;21200;-55
2022/07/15 12:16:36;;;;;;;5.12;2.90;;;;;;;30.89;53.38;100223.17;1687185;83;21916;-55
2022/07/15 12:19:44;;;;;;;3.00;2.33;;;;;;;30.84;53.10;100223.27;1706193;84;21214;-54
2022/07/15 12:23:14;;;;;;;5.00;2.60;;;;;;;30.83;52.89;100218.17;1700565;82;21272;-54
2022/07/15 12:26:22;;;;;;;5.00;2.45;;;;;;;30.85;52.71;100215.03;1712535;84;21263;-57
2022/07/15 12:29:30;;;;;;;3.50;2.17;;;;;;;30.85;52.44;100203.73;1722053;83;21223;-57
2022/07/15 12:32:39;;;;;;;4.65;2.50;;;;;;;30.89;52.23;100207.02;1708438;82;21748;-57
2022/07/15 12:35:44;;;;;;;3.90;2.40;;;;;;;30.95;52.15;100203.53;1712604;84;21216;-56
2022/07/15 12:39:19;;;;;;;3.17;2.20;;;;;;;30.99;51.75;100202.58;1702381;84;21767;-57
2022/07/15 12:42:29;;;;;;;7.53;2.75;;;;;;;30.97;51.51;100202.64;1668545;86;21243;-59
2022/07/15 12:45:45;;;;;;;5.75;2.40;;;;;;;31.00;51.42;100199.19;1669391;86;21925;-58
2022/07/15 12:48:55;;;;;;;3.40;2.50;;;;;;;31.06;51.25;100202.16;1674686;83;21470;-60
2022/07/15 12:52:03;;;;;;;5.20;2.62;;;;;;;31.07;51.00;100184.88;1694565;84;21279;-59
2022/07/15 12:55:22;;;;;;;8.25;2.72;;;;;;;31.09;50.78;100183.14;1665952;86;21210;-58
2022/07/15 12:58:35;;;;;;;4.33;2.52;;;;;;;31.11;50.62;100185.09;1684207;83;21180;-61
2022/07/15 13:01:42;;;;;;;5.83;2.40;;;;;;;31.13;50.42;100175.72;1698280;83;21226;-62
2022/07/15 13:04:49;;;;;;;4.83;2.67;;;;;;;31.13;50.24;100165.81;1683169;85;21725;-60
2022/07/15 13:07:58;;;;;;;3.58;2.85;;;;;;;31.18;50.13;100169.92;1680405;84;21234;-59
2022/07/15 13:11:11;;;;;;;4.35;2.37;;;;;;;31.22;49.88;100167.59;1670598;84;21239;-55
2022/07/15 13:14:17;;;;;;;7.65;2.83;;;;;;;31.25;49.63;100168.92;1693978;83;21230;-55
2022/07/15 13:17:32;;;;;;;4.95;2.52;;;;;;;31.28;49.38;100157.82;1727083;81;21250;-57
2022/07/15 13:20:36;;;;;;;5.40;2.50;;;;;;;31.30;49.18;100160.33;1727293;81;21736;-55
2022/07/15 13:23:48;;;;;;;5.22;2.05;;;;;;;31.30;49.05;100149.02;1733745;81;21177;-56
2022/07/15 13:26:58;;;;;;;4.87;2.22;;;;;;;31.33;48.91;100151.23;1750061;81;21234;-56
2022/07/15 13:30:07;;;;;;;5.10;2.20;;;;;;;31.37;48.70;100149.42;1748824;82;21201;-55
2022/07/15 13:33:18;;;;;;;3.42;2.37;;;;;;;31.36;48.53;100147.77;1726278;83;21295;-55
2022/07/15 13:36:29;;;;;;;5.35;2.80;;;;;;;31.33;48.32;100139.92;1726178;81;21224;-56
2022/07/15 13:39:38;;;;;;;3.98;2.17;;;;;;;31.33;48.16;100139.92;1725745;83;21307;-55
2022/07/15 13:42:46;;;;;;;4.90;2.27;;;;;;;31.34;48.00;100135.92;1745644;81;21243;-57
2022/07/15 13:45:57;;;;;;;7.00;2.55;;;;;;;31.37;47.79;100126.79;1718155;83;21712;-56
2022/07/15 13:49:07;;;;;;;3.42;2.27;;;;;;;31.39;47.61;100121.66;1692291;83;21225;-54
2022/07/15 13:52:15;;;;;;;6.90;2.27;;;;;;;31.39;47.48;100123.07;1697410;84;21223;-54
2022/07/15 13:55:24;;;;;;;5.22;2.40;;;;;;;31.37;47.28;100121.13;1697303;84;21179;-54
2022/07/15 13:58:38;;;;;;;5.50;2.72;;;;;;;31.37;47.15;100118.30;1697761;84;21362;-55
2022/07/15 14:01:45;;;;;;;6.70;2.60;;;;;;;31.37;46.95;100119.15;1697481;84;21254;-56
2022/07/15 14:04:52;;;;;;;4.00;2.27;;;;;;;31.35;46.84;100118.62;1697212;84;21207;-56
2022/07/15 14:08:00;;;;;;;6.62;2.70;;;;;;;31.34;46.66;100115.55;1719285;81;21223;-55
2022/07/15 14:11:11;;;;;;;5.03;2.40;;;;;;;31.34;46.53;100121.20;1697061;84;21219;-55
2022/07/15 14:14:25;;;;;;;5.90;2.58;;;;;;;31.33;46.39;100115.86;1697004;84;21780;-55
2022/07/15 14:17:32;;;;;;;5.55;2.15;;;;;;;31.28;46.12;100110.28;1697474;84;21294;-55
2022/07/15 14:20:41;;;;;;;3.25;2.00;;;;;;;31.21;46.03;100119.78;1699715;83;21279;-55
2022/07/15 14:23:41;;;;;;;4.12;2.12;;;;;;;31.18;45.91;100106.27;1719892;81;21235;-56
2022/07/15 14:26:34;;;;;;;3.85;2.50;;;;;;;31.12;45.73;100102.73;1726103;83;21744;-55
2022/07/15 14:29:42;;;;;;;5.83;2.33;;;;;;;31.06;45.62;100108.83;1726595;83;21218;-55
2022/07/15 14:32:49;;;;;;;4.45;1.98;;;;;;;31.00;45.51;100101.61;1726074;83;21279;-55
2022/07/15 14:35:57;;;;;;;4.28;2.52;;;;;;;31.07;45.41;100103.42;1725653;81;21895;-55
2022/07/15 14:39:09;;;;;;;5.05;2.50;;;;;;;31.24;45.15;100100.78;1725467;83;21723;-55
2022/07/15 14:42:18;;;;;;;7.08;3.02;;;;;;;31.28;44.96;100096.14;1725025;83;21286;-55
2022/07/15 14:45:28;;;;;;;6.78;2.80;;;;;;;31.29;44.94;100099.22;1725955;83;21215;-57
2022/07/15 14:48:39;;;;;;;5.83;2.33;;;;;;;31.32;44.96;100097.19;1726837;83;21231;-56
2022/07/15 14:51:46;;;;;;;5.20;2.33;;;;;;;31.24;44.81;100096.53;1726754;83;21239;-55
2022/07/15 14:54:53;;;;;;;4.78;2.60;;;;;;;31.13;44.76;100106.41;1726724;83;21389;-56